Time;durP1;ratioP1;P1;durP2;ratioP2;P2;SDS_P1;SDS_P2;PMS_P1;PMS_P2;Temp;Humidity;BMP_temperature;BMP_pressure;BME280_temperature;BME280_humidity;BME280_pressure;Samples;Min_cycle;Max_cycle;Signal;HPM_P1;HPM_P2
2022/01/14 00:01:53;;;;;;;31.30;18.15;;;;;;;4.47;100.00;101238.09;1626694;87;25961;-79
2022/01/14 00:04:20;;;;;;;30.85;16.82;;;;;;;4.46;100.00;101232.42;1627345;88;25931;-78
2022/01/14 00:06:47;;;;;;;34.18;18.15;;;;;;;4.47;100.00;101236.25;1627305;87;27465;-78
2022/01/14 00:09:14;;;;;;;28.42;16.30;;;;;;;4.49;100.00;101246.75;1626774;87;25812;-78
2022/01/14 00:11:53;;;;;;;29.45;15.83;;;;;;;4.50;100.00;101239.98;1627109;88;25891;-78
2022/01/14 00:14:24;;;;;;;36.53;18.67;;;;;;;4.51;100.00;101242.16;1614168;88;25818;-78
2022/01/14 00:16:49;;;;;;;29.65;17.57;;;;;;;4.51;100.00;101228.89;1613886;88;25935;-79
2022/01/14 00:19:17;;;;;;;33.60;16.62;;;;;;;4.53;100.00;101228.27;1613750;88;27564;-78
2022/01/14 00:21:45;;;;;;;32.93;16.93;;;;;;;4.52;100.00;101226.09;1613707;88;25874;-79
2022/01/14 00:24:24;;;;;;;34.45;17.65;;;;;;;4.51;100.00;101212.98;1613656;88;25874;-77
2022/01/14 00:32:12;;;;;;;31.65;17.42;;;;;;;4.51;100.00;101201.04;1613267;88;27462;-78
2022/01/14 00:34:36;;;;;;;34.18;17.92;;;;;;;4.52;100.00;101189.44;1613170;88;25850;-78
2022/01/14 00:37:03;;;;;;;33.73;16.70;;;;;;;4.51;100.00;101179.30;1613766;88;25852;-78
2022/01/14 00:39:30;;;;;;;30.48;17.60;;;;;;;4.51;100.00;101177.16;1613767;88;25987;-79
2022/01/14 00:41:57;;;;;;;27.77;15.58;;;;;;;4.52;100.00;101176.17;1613339;88;25949;-78
2022/01/14 00:44:23;;;;;;;31.60;16.30;;;;;;;4.52;100.00;101181.00;1613509;88;28131;-78
2022/01/14 00:46:50;;;;;;;26.48;14.63;;;;;;;4.53;100.00;101178.69;1613757;88;25315;-79
2022/01/14 00:49:20;;;;;;;29.32;14.90;;;;;;;4.53;100.00;101176.03;1613798;88;25762;-78
2022/01/14 00:51:47;;;;;;;32.10;15.68;;;;;;;4.54;100.00;101178.20;1614055;88;25930;-79
2022/01/14 00:54:15;;;;;;;28.17;16.05;;;;;;;4.53;100.00;101170.72;1613755;88;26413;-78
2022/01/14 00:59:15;;;;;;;33.55;16.60;;;;;;;4.57;100.00;101179.27;1613715;88;25771;-78
2022/01/14 01:01:52;;;;;;;27.35;14.38;;;;;;;4.59;100.00;101172.02;1613486;88;25628;-79
2022/01/14 01:04:28;;;;;;;30.90;15.45;;;;;;;4.61;100.00;101175.38;1613320;88;25873;-79
2022/01/14 01:06:53;;;;;;;26.10;14.38;;;;;;;4.60;100.00;101159.09;1613752;87;26511;-78
2022/01/14 01:09:23;;;;;;;23.00;13.80;;;;;;;4.62;100.00;101158.47;1613060;88;27483;-78
2022/01/14 01:11:53;;;;;;;27.87;13.85;;;;;;;4.62;100.00;101155.33;1612946;87;25965;-78
2022/01/14 01:14:25;;;;;;;28.83;14.98;;;;;;;4.65;100.00;101160.86;1649188;86;25872;-79
2022/01/14 01:16:48;;;;;;;26.97;13.55;;;;;;;4.66;100.00;101143.98;1652031;86;26822;-79
2022/01/14 01:19:15;;;;;;;26.27;14.05;;;;;;;4.65;100.00;101136.98;1652364;86;25930;-78
2022/01/14 01:21:41;;;;;;;23.95;13.95;;;;;;;4.66;100.00;101134.70;1652208;86;27463;-79
2022/01/14 01:24:09;;;;;;;31.12;15.05;;;;;;;4.67;100.00;101127.92;1651733;86;25944;-78
2022/01/14 01:26:39;;;;;;;27.40;14.73;;;;;;;4.67;100.00;101118.63;1652576;86;25854;-78
2022/01/14 01:31:40;;;;;;;27.27;14.18;;;;;;;4.68;100.00;101097.73;1652363;86;26497;-78
2022/01/14 01:34:14;;;;;;;27.37;13.20;;;;;;;4.69;100.00;101095.93;1652832;86;27560;-78
2022/01/14 01:36:44;;;;;;;22.98;11.28;;;;;;;4.71;100.00;101093.98;1652157;86;26224;-80
2022/01/14 01:39:18;;;;;;;22.82;12.78;;;;;;;4.72;100.00;101092.17;1652342;86;25789;-78
2022/01/14 01:41:49;;;;;;;24.27;12.88;;;;;;;4.72;100.00;101091.69;1652018;86;25833;-78
2022/01/14 01:44:17;;;;;;;22.42;12.82;;;;;;;4.72;100.00;101085.05;1651864;86;26621;-78
2022/01/14 01:46:47;;;;;;;27.70;13.18;;;;;;;4.73;100.00;101093.34;1652512;86;27437;-78
2022/01/14 01:49:17;;;;;;;22.67;12.40;;;;;;;4.75;100.00;101094.56;1652121;86;26606;-79
2022/01/14 01:51:46;;;;;;;26.87;13.43;;;;;;;4.76;100.00;101095.74;1651986;86;26673;-78
2022/01/14 01:54:14;;;;;;;25.00;14.03;;;;;;;4.75;100.00;101092.72;1652072;86;25784;-78
2022/01/14 01:56:41;;;;;;;22.13;12.05;;;;;;;4.76;100.00;101084.28;1652363;86;25938;-79
2022/01/14 01:59:10;;;;;;;26.07;13.60;;;;;;;4.75;100.00;101078.13;1652019;86;27515;-78
2022/01/14 02:01:39;;;;;;;28.80;13.68;;;;;;;4.75;100.00;101083.44;1652110;86;25808;-79
2022/01/14 02:04:05;;;;;;;25.82;12.95;;;;;;;4.74;100.00;101061.02;1652275;86;25807;-78
2022/01/14 02:06:33;;;;;;;26.07;13.10;;;;;;;4.73;100.00;101048.23;1652264;86;26630;-78
2022/01/14 02:08:59;;;;;;;22.00;12.13;;;;;;;4.70;100.00;101053.84;1652963;86;25793;-78
2022/01/14 02:11:25;;;;;;;28.92;13.85;;;;;;;4.68;100.00;101054.47;1652302;86;27439;-79
2022/01/14 02:13:54;;;;;;;24.27;12.93;;;;;;;4.65;100.00;101045.45;1630685;86;25794;-78
2022/01/14 02:16:30;;;;;;;29.57;14.07;;;;;;;4.62;100.00;101041.25;1611995;88;25822;-78
2022/01/14 02:26:53;;;;;;;27.40;13.93;;;;;;;4.55;100.00;101031.34;1611694;88;25971;-79
2022/01/14 02:29:21;;;;;;;22.73;13.03;;;;;;;4.53;100.00;101034.11;1625151;86;25763;-78
2022/01/14 02:31:49;;;;;;;24.55;14.93;;;;;;;4.54;100.00;101038.93;1637783;86;26784;-79
2022/01/14 02:34:16;;;;;;;24.05;12.98;;;;;;;4.54;100.00;101026.52;1626946;88;26002;-78
2022/01/14 02:36:45;;;;;;;27.40;15.63;;;;;;;4.53;100.00;101024.82;1637395;86;27007;-78
2022/01/14 02:39:14;;;;;;;24.70;13.45;;;;;;;4.55;100.00;101018.07;1626951;87;26486;-78
2022/01/14 02:41:44;;;;;;;28.15;15.10;;;;;;;4.55;100.00;101006.98;1627036;87;25737;-78
2022/01/14 02:44:20;;;;;;;27.07;14.58;;;;;;;4.53;100.00;101013.39;1626946;87;26062;-77
2022/01/14 02:46:54;;;;;;;22.93;12.63;;;;;;;4.52;100.00;101013.88;1627313;87;25922;-78
2022/01/14 02:49:20;;;;;;;26.00;13.25;;;;;;;4.51;100.00;101000.25;1626995;88;27821;-78
2022/01/14 02:51:46;;;;;;;24.05;13.13;;;;;;;4.51;100.00;100993.62;1626570;88;26383;-79
2022/01/14 02:54:15;;;;;;;24.80;13.85;;;;;;;4.50;100.00;100990.63;1626778;88;26617;-78
2022/01/14 02:56:44;;;;;;;23.00;12.58;;;;;;;4.49;100.00;100992.92;1626947;88;25853;-78
2022/01/14 02:59:11;;;;;;;21.02;12.95;;;;;;;4.49;100.00;100982.31;1626922;88;25984;-78
2022/01/14 03:01:37;;;;;;;27.13;15.03;;;;;;;4.46;100.00;100982.60;1627033;87;28271;-79
2022/01/14 03:04:04;;;;;;;24.18;14.78;;;;;;;4.42;100.00;100974.58;1626988;87;25841;-80
2022/01/14 03:06:31;;;;;;;21.65;14.20;;;;;;;4.41;100.00;100972.04;1626726;87;25824;-78
2022/01/14 03:08:58;;;;;;;21.57;13.32;;;;;;;4.40;100.00;100975.69;1626739;87;25753;-78
2022/01/14 03:11:39;;;;;;;22.80;14.10;;;;;;;4.37;100.00;100968.84;1627080;88;25790;-79
2022/01/14 03:14:05;;;;;;;26.75;15.38;;;;;;;4.37;100.00;100966.19;1638072;86;27490;-78
2022/01/14 03:16:39;;;;;;;24.92;13.98;;;;;;;4.35;100.00;100963.31;1652060;86;25860;-78
2022/01/14 03:19:07;;;;;;;26.05;14.07;;;;;;;4.33;100.00;100962.62;1651554;86;25834;-79
2022/01/14 03:21:36;;;;;;;23.65;14.45;;;;;;;4.32;100.00;100973.70;1651555;86;26017;-79
2022/01/14 03:24:15;;;;;;;22.50;13.62;;;;;;;4.30;100.00;100968.22;1651437;86;25811;-78
2022/01/14 03:26:31;;;;;;;27.20;14.87;;;;;;;4.29;100.00;100967.37;1650546;86;27472;-78
2022/01/14 03:28:57;;;;;;;23.20;13.85;;;;;;;4.28;100.00;100970.98;1651823;86;25856;-79
2022/01/14 03:31:24;;;;;;;23.73;14.00;;;;;;;4.28;100.00;100980.73;1652305;86;25832;-78
2022/01/14 03:33:50;;;;;;;23.18;15.03;;;;;;;4.28;100.00;100987.38;1651763;86;27029;-78
2022/01/14 03:36:16;;;;;;;19.52;13.35;;;;;;;4.29;100.00;100983.76;1652347;86;25592;-78
2022/01/14 03:38:42;;;;;;;21.93;13.13;;;;;;;4.29;100.00;100992.56;1652108;86;28317;-78
2022/01/14 03:41:08;;;;;;;22.82;14.43;;;;;;;4.30;100.00;101003.50;1652427;86;25911;-78
2022/01/14 03:43:36;;;;;;;21.27;13.60;;;;;;;4.32;100.00;100995.43;1651886;86;26571;-79
2022/01/14 03:46:03;;;;;;;27.87;14.45;;;;;;;4.32;100.00;100998.08;1652584;86;26539;-79
2022/01/14 03:48:29;;;;;;;22.73;14.43;;;;;;;4.33;100.00;100995.28;1652157;86;25764;-79
2022/01/14 03:50:55;;;;;;;21.27;12.37;;;;;;;4.33;100.00;100989.98;1652259;86;27445;-79
2022/01/14 03:53:22;;;;;;;30.48;13.62;;;;;;;4.35;100.00;100981.88;1652045;86;25994;-79
2022/01/14 03:55:48;;;;;;;19.40;11.45;;;;;;;4.35;100.00;100980.55;1652434;86;25859;-78
2022/01/14 03:58:14;;;;;;;23.50;13.65;;;;;;;4.37;100.00;100974.62;1652226;86;26719;-79
2022/01/14 04:00:41;;;;;;;19.30;11.08;;;;;;;4.38;100.00;100971.01;1652382;86;26306;-79
2022/01/14 04:03:08;;;;;;;16.85;10.85;;;;;;;4.38;100.00;100971.86;1651953;86;28277;-78
2022/01/14 04:05:35;;;;;;;16.15;9.60;;;;;;;4.39;100.00;100964.23;1652720;86;25722;-79
2022/01/14 04:08:02;;;;;;;17.20;10.03;;;;;;;4.43;100.00;100975.39;1652403;86;25835;-79
2022/01/14 04:10:29;;;;;;;20.40;11.95;;;;;;;4.44;100.00;100969.97;1623911;86;26104;-78
2022/01/14 04:13:06;;;;;;;18.95;9.88;;;;;;;4.45;100.00;100965.48;1619734;88;25898;-79
2022/01/14 04:15:39;;;;;;;21.55;9.98;;;;;;;4.47;100.00;100951.63;1613423;87;27815;-79
2022/01/14 04:18:13;;;;;;;15.40;9.53;;;;;;;4.48;100.00;100958.10;1621650;88;25855;-78
2022/01/14 04:20:42;;;;;;;21.70;9.18;;;;;;;4.50;100.00;100963.26;1622603;88;25864;-78
2022/01/14 04:23:13;;;;;;;15.28;8.10;;;;;;;4.51;100.00;100957.80;1624717;87;26596;-78
2022/01/14 04:25:41;;;;;;;12.90;8.30;;;;;;;4.53;100.00;100955.03;1626502;87;25955;-78
2022/01/14 04:28:10;;;;;;;15.00;8.10;;;;;;;4.53;100.00;100951.05;1632934;87;27457;-78
2022/01/14 04:30:37;;;;;;;13.50;9.78;;;;;;;4.56;100.00;100956.06;1629249;86;25838;-78
2022/01/14 04:33:05;;;;;;;13.25;7.92;;;;;;;4.57;100.00;100944.49;1632170;87;25950;-79
2022/01/14 04:35:33;;;;;;;12.70;8.03;;;;;;;4.59;100.00;100946.52;1629145;87;26650;-78
2022/01/14 04:38:00;;;;;;;13.13;7.65;;;;;;;4.59;100.00;100938.08;1632745;86;25795;-78
2022/01/14 04:40:27;;;;;;;16.67;7.65;;;;;;;4.60;100.00;100930.45;1629157;87;28428;-78
2022/01/14 04:42:54;;;;;;;12.70;7.85;;;;;;;4.61;100.00;100938.77;1632505;87;25555;-79
2022/01/14 04:45:40;;;;;;;15.58;8.15;;;;;;;4.61;100.00;100941.42;1629059;87;26269;-79
2022/01/14 04:47:57;;;;;;;11.33;6.87;;;;;;;4.61;100.00;100934.79;1625774;87;26026;-78
2022/01/14 04:50:25;;;;;;;13.30;7.37;;;;;;;4.63;100.00;100923.55;1628140;86;25920;-78
2022/01/14 04:52:53;;;;;;;10.43;6.80;;;;;;;4.63;100.00;100916.91;1627907;87;33326;-79
2022/01/14 04:55:25;;;;;;;12.45;6.67;;;;;;;4.64;100.00;100923.88;1627886;87;25968;-79
2022/01/14 04:57:55;;;;;;;11.78;7.40;;;;;;;4.66;100.00;100919.27;1628112;86;25821;-78
2022/01/14 05:00:24;;;;;;;12.95;7.08;;;;;;;4.67;100.00;100912.16;1627971;87;25874;-79
2022/01/14 05:02:55;;;;;;;12.63;6.80;;;;;;;4.67;100.00;100904.19;1627731;87;25860;-78
2022/01/14 05:05:26;;;;;;;12.15;6.50;;;;;;;4.67;100.00;100899.73;1627903;87;27485;-79
2022/01/14 05:07:52;;;;;;;;;;;;;;;4.67;100.00;100890.44;1630180;87;26048;-78
2022/01/14 05:12:54;;;;;;;8.95;4.58;;;;;;;4.68;100.00;100891.29;1627447;87;26658;-78
2022/01/14 05:15:21;;;;;;;7.87;4.65;;;;;;;4.68;100.00;100877.50;1645136;86;25802;-78
2022/01/14 05:17:49;;;;;;;9.25;5.35;;;;;;;4.69;100.00;100857.97;1651627;86;27477;-79
2022/01/14 05:20:17;;;;;;;10.10;6.45;;;;;;;4.69;100.00;100850.01;1651923;86;25809;-78
2022/01/14 05:22:44;;;;;;;10.98;6.10;;;;;;;4.70;100.00;100849.52;1652139;86;26616;-78
2022/01/14 05:25:13;;;;;;;11.83;6.00;;;;;;;4.72;100.00;100857.34;1651980;86;25930;-78
2022/01/14 05:27:42;;;;;;;12.63;6.35;;;;;;;4.73;100.00;100859.02;1652609;86;25950;-79
2022/01/14 05:30:11;;;;;;;10.75;5.85;;;;;;;4.74;100.00;100859.35;1652057;86;27487;-78
2022/01/14 05:32:46;;;;;;;9.18;6.10;;;;;;;4.74;100.00;100854.05;1647706;86;25783;-78
2022/01/14 05:35:14;;;;;;;11.22;5.50;;;;;;;4.75;100.00;100843.80;1622375;87;25786;-78
2022/01/14 05:37:41;;;;;;;10.40;4.90;;;;;;;4.75;100.00;100826.55;1627014;88;26537;-79
2022/01/14 05:40:08;;;;;;;12.35;5.60;;;;;;;4.77;100.00;100833.36;1627174;87;25892;-78
2022/01/14 05:42:34;;;;;;;14.38;5.55;;;;;;;4.78;100.00;100831.06;1627057;87;27455;-79
2022/01/14 05:45:01;;;;;;;7.45;4.58;;;;;;;4.78;100.00;100823.10;1627065;87;25907;-78
2022/01/14 05:47:27;;;;;;;14.28;5.22;;;;;;;4.81;100.00;100820.17;1627059;87;25771;-78
2022/01/14 05:49:54;;;;;;;12.03;5.62;;;;;;;4.82;100.00;100829.79;1626838;88;25881;-79
2022/01/14 05:52:21;;;;;;;7.65;5.28;;;;;;;4.84;100.00;100829.16;1626974;87;25646;-79
2022/01/14 05:54:51;;;;;;;6.83;4.75;;;;;;;4.85;100.00;100828.67;1626208;87;28395;-78
2022/01/14 05:57:16;;;;;;;9.38;4.85;;;;;;;4.85;100.00;100808.77;1627270;88;25758;-78
2022/01/14 05:59:42;;;;;;;9.43;5.35;;;;;;;4.85;100.00;100807.44;1627085;86;26442;-79
2022/01/14 06:02:09;;;;;;;7.55;4.90;;;;;;;4.86;100.00;100812.59;1627419;86;26524;-78
2022/01/14 06:04:35;;;;;;;8.03;5.60;;;;;;;4.86;100.00;100809.94;1623945;87;25986;-78
2022/01/14 06:07:03;;;;;;;9.88;4.65;;;;;;;4.88;100.00;100819.92;1607586;87;28348;-79
2022/01/14 06:09:29;;;;;;;6.60;4.65;;;;;;;4.90;100.00;100821.13;1596551;89;25896;-78
2022/01/14 06:11:56;;;;;;;7.65;4.50;;;;;;;4.90;100.00;100827.24;1595956;89;25889;-79
2022/01/14 06:14:22;;;;;;;8.00;5.00;;;;;;;4.91;100.00;100820.13;1605057;86;26506;-79
2022/01/14 06:16:48;;;;;;;8.43;4.67;;;;;;;4.91;100.00;100817.47;1650044;86;25740;-78
2022/01/14 06:19:14;;;;;;;8.60;4.87;;;;;;;4.91;100.00;100815.66;1626104;86;26982;-79
2022/01/14 06:21:40;;;;;;;7.17;4.75;;;;;;;4.91;100.00;100813.00;1624853;86;25954;-78
2022/01/14 06:24:07;;;;;;;8.33;5.05;;;;;;;4.91;100.00;100800.22;1625780;88;25848;-78
2022/01/14 06:26:33;;;;;;;11.68;5.12;;;;;;;4.91;100.00;100789.60;1626805;87;26626;-78
2022/01/14 06:28:59;;;;;;;10.08;5.10;;;;;;;4.90;100.00;100794.06;1623307;86;26594;-79
2022/01/14 06:31:26;;;;;;;11.08;5.00;;;;;;;4.90;100.00;100790.60;1625223;86;27471;-78
2022/01/14 06:33:52;;;;;;;10.23;5.72;;;;;;;4.88;100.00;100780.59;1613555;87;25347;-79
2022/01/14 06:36:18;;;;;;;7.92;4.40;;;;;;;4.85;100.00;100780.42;1624874;86;25963;-79
2022/01/14 06:38:44;;;;;;;8.70;5.33;;;;;;;4.85;100.00;100780.42;1622931;87;26517;-78
2022/01/14 06:41:10;;;;;;;8.00;5.10;;;;;;;4.83;100.00;100769.11;1626444;86;25859;-78
2022/01/14 06:43:37;;;;;;;7.40;4.62;;;;;;;4.84;100.00;100775.23;1628240;86;27474;-78
2022/01/14 06:46:06;;;;;;;8.78;5.72;;;;;;;4.83;100.00;100773.58;1622437;86;25844;-78
2022/01/14 06:48:34;;;;;;;7.80;5.00;;;;;;;4.82;100.00;100775.87;1624963;87;25810;-79
2022/01/14 06:51:00;;;;;;;9.55;5.53;;;;;;;4.81;100.00;100784.34;1631487;86;25834;-78
2022/01/14 06:53:26;;;;;;;10.45;6.58;;;;;;;4.81;100.00;100776.87;1629633;86;26249;-78
2022/01/14 06:55:53;;;;;;;12.63;6.08;;;;;;;4.81;100.00;100773.73;1621701;87;27623;-79
2022/01/14 06:58:19;;;;;;;12.30;6.37;;;;;;;4.81;100.00;100763.12;1596445;89;25896;-78
2022/01/14 07:00:45;;;;;;;12.37;6.67;;;;;;;4.82;100.00;100745.35;1596443;89;26014;-79
2022/01/14 07:03:11;;;;;;;10.75;6.72;;;;;;;4.81;100.00;100757.81;1596409;89;26444;-80
2022/01/14 07:05:37;;;;;;;8.43;6.08;;;;;;;4.81;100.00;100757.81;1596297;89;26072;-79
2022/01/14 07:08:04;;;;;;;9.83;5.65;;;;;;;4.84;100.00;100761.96;1596106;89;27493;-79
2022/01/14 07:10:36;;;;;;;10.35;6.00;;;;;;;4.84;100.00;100766.78;1595989;89;25859;-79
2022/01/14 07:13:00;;;;;;;7.12;5.95;;;;;;;4.85;100.00;100773.78;1595740;89;25938;-79
2022/01/14 07:15:26;;;;;;;12.95;6.10;;;;;;;4.85;100.00;100763.16;1629744;86;25869;-79
2022/01/14 07:17:52;;;;;;;9.35;5.50;;;;;;;4.87;100.00;100766.51;1652355;86;25920;-79
2022/01/14 07:20:19;;;;;;;9.35;5.62;;;;;;;4.86;100.00;100752.88;1651954;86;27468;-78
2022/01/14 07:22:46;;;;;;;10.58;5.97;;;;;;;4.88;100.00;100750.06;1651719;86;26056;-79
2022/01/14 07:25:14;;;;;;;12.60;7.22;;;;;;;4.88;100.00;100755.37;1651957;86;25791;-79
2022/01/14 07:27:41;;;;;;;11.03;6.62;;;;;;;4.87;100.00;100765.18;1651884;86;25816;-78
2022/01/14 07:30:09;;;;;;;8.70;6.12;;;;;;;4.88;100.00;100760.69;1652020;86;26002;-79
2022/01/14 07:32:35;;;;;;;10.63;7.08;;;;;;;4.88;100.00;100750.91;1651747;86;28289;-79
2022/01/14 07:35:03;;;;;;;10.40;7.78;;;;;;;4.90;100.00;100746.80;1630937;86;25830;-79
2022/01/14 07:37:29;;;;;;;12.63;7.60;;;;;;;4.89;100.00;100747.29;1633493;86;26578;-79
2022/01/14 07:39:55;;;;;;;10.98;7.25;;;;;;;4.89;100.00;100740.66;1626873;86;25842;-78
2022/01/14 07:42:22;;;;;;;11.35;7.42;;;;;;;4.90;100.00;100740.17;1619248;87;26484;-80
2022/01/14 07:44:48;;;;;;;14.15;10.08;;;;;;;4.91;100.00;100735.19;1639844;86;27529;-80
2022/01/14 07:47:14;;;;;;;23.10;16.30;;;;;;;4.91;100.00;100728.55;1626814;87;25859;-78
2022/01/14 07:49:40;;;;;;;10.43;8.83;;;;;;;4.91;100.00;100708.65;1625556;86;25838;-78
2022/01/14 07:52:06;;;;;;;12.88;9.33;;;;;;;4.92;100.00;100725.75;1629662;86;26441;-79
2022/01/14 07:54:33;;;;;;;11.45;9.33;;;;;;;4.93;100.00;100718.63;1623006;88;25929;-79
2022/01/14 07:57:00;;;;;;;13.45;9.20;;;;;;;4.93;100.00;100727.43;1624375;87;28905;-78
2022/01/14 07:59:31;;;;;;;16.62;8.93;;;;;;;4.94;100.00;100712.34;1625910;87;25921;-79
2022/01/14 08:01:59;;;;;;;13.32;8.15;;;;;;;4.95;100.00;100713.52;1625340;88;25863;-78
2022/01/14 08:04:27;;;;;;;12.75;7.92;;;;;;;4.96;100.00;100713.03;1625233;88;26674;-78
2022/01/14 08:06:57;;;;;;;10.10;7.05;;;;;;;4.97;100.00;100713.36;1627004;87;25778;-79
2022/01/14 08:09:22;;;;;;;11.68;7.12;;;;;;;4.98;100.00;100705.27;1631647;87;27873;-78
2022/01/14 08:11:50;;;;;;;13.98;7.58;;;;;;;5.01;100.00;100698.32;1626710;86;25822;-77
2022/01/14 08:14:16;;;;;;;12.78;8.38;;;;;;;5.02;100.00;100701.33;1605658;87;26057;-79
2022/01/14 08:16:42;;;;;;;11.88;6.97;;;;;;;5.03;100.00;100700.81;1626363;86;26689;-79
2022/01/14 08:19:09;;;;;;;13.53;8.45;;;;;;;5.02;100.00;100701.81;1623394;86;25974;-78
2022/01/14 08:21:35;;;;;;;12.75;7.67;;;;;;;5.02;100.00;100712.44;1625877;87;28279;-78
2022/01/14 08:24:02;;;;;;;13.40;8.03;;;;;;;5.01;100.00;100712.92;1633135;86;26623;-77
2022/01/14 08:26:28;;;;;;;13.15;7.62;;;;;;;5.02;100.00;100701.33;1624500;87;25841;-77
2022/01/14 08:28:54;;;;;;;15.32;10.20;;;;;;;5.04;100.00;100703.34;1623618;87;26574;-78
2022/01/14 08:31:22;;;;;;;11.33;8.10;;;;;;;5.05;100.00;100703.67;1629422;86;25842;-78
2022/01/14 08:33:48;;;;;;;14.28;9.48;;;;;;;5.07;100.00;100697.72;1626302;87;27472;-78
2022/01/14 08:36:14;;;;;;;14.45;8.50;;;;;;;5.10;100.00;100678.00;1624691;87;25345;-77
2022/01/14 08:38:40;;;;;;;17.87;12.58;;;;;;;5.12;100.00;100694.62;1623854;86;25941;-78
2022/01/14 08:41:07;;;;;;;14.07;9.10;;;;;;;5.13;100.00;100683.84;1635919;86;26601;-79
2022/01/14 08:43:33;;;;;;;12.88;8.65;;;;;;;5.14;100.00;100678.89;1633001;86;26005;-79
2022/01/14 08:46:02;;;;;;;12.93;7.75;;;;;;;5.17;100.00;100685.72;1648113;85;27441;-77
2022/01/14 08:48:27;;;;;;;12.33;7.72;;;;;;;5.21;100.00;100676.47;1627343;87;26002;-77
2022/01/14 08:50:54;;;;;;;11.33;7.45;;;;;;;5.23;100.00;100681.14;1628479;87;26500;-77
2022/01/14 08:53:20;;;;;;;11.80;8.08;;;;;;;5.25;100.00;100686.64;1627261;86;26096;-79
2022/01/14 08:55:46;;;;;;;13.40;8.95;;;;;;;5.27;100.00;100677.19;1622859;87;26657;-76
2022/01/14 08:58:13;;;;;;;13.60;9.83;;;;;;;5.29;100.00;100682.70;1613563;87;27606;-79
2022/01/14 09:00:39;;;;;;;10.28;7.80;;;;;;;5.33;100.00;100687.20;1593119;89;26050;-79
2022/01/14 09:03:06;;;;;;;10.63;7.25;;;;;;;5.34;100.00;100668.48;1620483;87;25741;-77
2022/01/14 09:05:33;;;;;;;9.98;6.97;;;;;;;5.36;100.00;100689.57;1599915;89;25903;-78
2022/01/14 09:08:01;;;;;;;11.73;7.10;;;;;;;5.38;100.00;100682.28;1618944;87;26328;-77
2022/01/14 09:10:28;;;;;;;12.05;7.35;;;;;;;5.40;100.00;100677.66;1628462;87;27559;-77
2022/01/14 09:12:54;;;;;;;9.80;7.30;;;;;;;5.40;100.00;100683.81;1635368;86;27629;-79
2022/01/14 09:15:21;;;;;;;9.33;7.30;;;;;;;5.43;100.00;100664.08;1685905;84;25743;-80
2022/01/14 09:17:47;;;;;;;7.40;6.12;;;;;;;5.44;100.00;100664.41;1669153;85;27003;-77
2022/01/14 09:20:14;;;;;;;11.48;6.55;;;;;;;5.46;100.00;100673.90;1668995;85;26526;-77
2022/01/14 09:22:48;;;;;;;9.35;6.37;;;;;;;5.49;100.00;100666.12;1668731;85;28358;-76
2022/01/14 09:25:12;;;;;;;11.50;8.25;;;;;;;5.51;100.00;100658.83;1685465;84;26035;-77
2022/01/14 09:27:38;;;;;;;11.45;8.35;;;;;;;5.54;100.00;100672.31;1686454;84;26528;-78
2022/01/14 09:30:09;;;;;;;13.40;7.83;;;;;;;5.55;100.00;100660.19;1686485;84;25871;-78
2022/01/14 09:32:35;;;;;;;10.80;6.80;;;;;;;5.56;100.00;100675.13;1685920;84;25800;-76
2022/01/14 09:35:03;;;;;;;9.78;6.83;;;;;;;5.58;100.00;100647.91;1686556;84;28268;-76
2022/01/14 09:37:30;;;;;;;11.45;7.03;;;;;;;5.61;100.00;100665.38;1683444;84;25851;-75
2022/01/14 09:39:58;;;;;;;8.68;6.33;;;;;;;5.62;100.00;100662.59;1649110;83;25996;-78
2022/01/14 09:42:25;;;;;;;13.32;7.50;;;;;;;5.64;100.00;100659.77;1648837;83;26541;-78
2022/01/14 09:44:51;;;;;;;9.13;6.75;;;;;;;5.65;100.00;100661.42;1685526;83;25795;-78
2022/01/14 09:47:20;;;;;;;13.32;8.63;;;;;;;5.64;100.00;100659.28;1686089;84;27698;-77
2022/01/14 09:49:47;;;;;;;9.13;6.58;;;;;;;5.64;100.00;100657.95;1686352;84;25762;-75
2022/01/14 09:52:16;;;;;;;7.00;5.40;;;;;;;5.65;100.00;100662.75;1685980;84;25924;-75
2022/01/14 09:54:44;;;;;;;9.25;6.47;;;;;;;5.65;100.00;100659.61;1686199;84;26580;-76
2022/01/14 09:57:17;;;;;;;9.70;5.55;;;;;;;5.65;100.00;100644.98;1683210;84;25833;-76
2022/01/14 09:59:44;;;;;;;8.50;5.35;;;;;;;5.67;100.00;100648.33;1682659;83;27482;-75
2022/01/14 10:02:33;;;;;;;9.18;5.08;;;;;;;5.70;100.00;100641.88;1699960;83;25763;-76
2022/01/14 10:04:59;;;;;;;13.05;7.47;;;;;;;5.73;100.00;100645.56;1701166;84;25333;-77
2022/01/14 10:07:25;;;;;;;5.78;4.70;;;;;;;5.76;100.00;100636.78;1700802;84;26540;-77
2022/01/14 10:09:57;;;;;;;7.70;5.30;;;;;;;5.80;100.00;100627.50;1686220;84;26499;-77
2022/01/14 10:12:20;;;;;;;8.53;5.55;;;;;;;5.81;100.00;100605.27;1675828;84;27528;-77
2022/01/14 10:15:04;;;;;;;9.65;4.87;;;;;;;5.83;100.00;100613.91;1659448;85;26585;-76
2022/01/14 10:17:38;;;;;;;8.28;5.67;;;;;;;5.85;100.00;100603.98;1626639;87;25813;-77
2022/01/14 10:20:08;;;;;;;21.15;11.40;;;;;;;5.87;100.00;100617.95;1630698;87;25964;-77
2022/01/14 10:22:40;;;;;;;14.50;8.63;;;;;;;5.88;100.00;100612.96;1641805;87;25918;-78
2022/01/14 10:25:11;;;;;;;13.50;9.83;;;;;;;5.89;100.00;100615.97;1641741;86;27494;-77
2022/01/14 10:27:45;;;;;;;11.30;6.95;;;;;;;5.91;100.00;100606.50;1681048;83;25924;-77
2022/01/14 10:30:28;;;;;;;6.35;4.65;;;;;;;5.93;100.00;100604.52;1677761;84;25884;-76
2022/01/14 10:33:05;;;;;;;7.85;5.65;;;;;;;5.94;100.00;100608.86;1675420;83;26615;-77
2022/01/14 10:35:42;;;;;;;10.05;5.42;;;;;;;5.94;100.00;100611.03;1695496;83;25917;-77
2022/01/14 10:38:13;;;;;;;5.80;4.37;;;;;;;5.95;100.00;100602.54;1677381;84;27684;-77
2022/01/14 10:40:46;;;;;;;5.40;4.65;;;;;;;5.95;100.00;100594.56;1656908;85;25915;-77
2022/01/14 10:43:16;;;;;;;11.12;5.15;;;;;;;5.94;100.00;100596.41;1668914;85;25976;-76
2022/01/14 10:45:45;;;;;;;6.47;5.20;;;;;;;5.92;100.00;100600.21;1679988;85;25916;-77
2022/01/14 10:48:16;;;;;;;7.60;5.20;;;;;;;5.92;100.00;100593.05;1684852;84;26489;-77
2022/01/14 10:50:56;;;;;;;7.35;4.42;;;;;;;5.93;100.00;100601.86;1679002;85;28929;-77
2022/01/14 10:53:31;;;;;;;7.03;4.12;;;;;;;5.95;100.00;100606.03;1677952;83;25923;-77
2022/01/14 10:56:14;;;;;;;7.40;4.35;;;;;;;5.97;100.00;100593.91;1668276;84;26472;-77
2022/01/14 10:58:50;;;;;;;10.48;5.17;;;;;;;5.98;100.00;100590.27;1641056;85;25821;-77
2022/01/14 11:01:22;;;;;;;6.28;4.08;;;;;;;5.97;100.00;100589.43;1664742;84;25839;-77
2022/01/14 11:04:03;;;;;;;6.75;3.90;;;;;;;5.98;100.00;100583.14;1685710;83;27489;-77
2022/01/14 11:06:35;;;;;;;6.45;4.28;;;;;;;5.99;100.00;100587.94;1685794;83;25895;-77
2022/01/14 11:09:18;;;;;;;8.58;4.83;;;;;;;6.00;100.00;100583.81;1669010;85;25899;-76
2022/01/14 11:11:49;;;;;;;10.10;5.87;;;;;;;6.02;100.00;100573.84;1687067;84;26537;-78
2022/01/14 11:14:16;;;;;;;6.42;4.20;;;;;;;6.06;100.00;100580.52;1686508;84;25848;-77
2022/01/14 11:16:44;;;;;;;7.17;4.87;;;;;;;6.10;100.00;100573.89;1667091;84;28253;-76
2022/01/14 11:19:10;;;;;;;9.88;5.37;;;;;;;6.13;100.00;100564.77;1672874;85;25783;-76
2022/01/14 11:24:35;;;;;;;7.42;4.80;;;;;;;6.16;100.00;100564.42;1641975;87;25747;-77
2022/01/14 11:27:07;;;;;;;7.67;5.15;;;;;;;6.20;100.00;100582.56;1673267;85;25811;-77
2022/01/14 11:29:47;;;;;;;6.25;4.78;;;;;;;6.23;100.00;100562.80;1652023;85;28540;-77
2022/01/14 11:32:16;;;;;;;5.55;3.62;;;;;;;6.25;100.00;100574.11;1673061;85;25895;-77
2022/01/14 11:34:48;;;;;;;7.00;3.77;;;;;;;6.29;100.00;100586.63;1651919;85;25868;-76
2022/01/14 11:37:34;;;;;;;4.60;3.58;;;;;;;6.33;100.00;100566.68;1673011;85;26221;-77
2022/01/14 11:40:06;;;;;;;6.80;3.45;;;;;;;6.36;100.00;100583.14;1672920;85;25837;-77
2022/01/14 11:42:44;;;;;;;4.33;3.45;;;;;;;6.39;100.00;100580.18;1672207;85;28199;-77
2022/01/14 11:45:23;;;;;;;7.78;4.10;;;;;;;6.42;100.00;100574.52;1672669;85;26374;-77
2022/01/14 11:47:58;;;;;;;7.33;3.60;;;;;;;6.46;100.00;100567.88;1669962;85;26073;-77